createdAt,value
2023-03-12T00:00:49.066Z,-1
2023-03-12T00:01:50.203Z,-1
2023-03-12T00:02:51.420Z,-1
2023-03-12T00:03:52.627Z,-1
2023-03-12T00:04:54.343Z,-1
2023-03-12T00:05:55.755Z,-1
2023-03-12T00:06:57.175Z,-1
2023-03-12T00:07:58.604Z,-1
2023-03-12T00:08:59.725Z,-1
2023-03-12T00:10:00.858Z,-1
2023-03-12T00:11:02.292Z,-1
2023-03-12T00:12:03.725Z,-1
2023-03-12T00:13:04.906Z,-1
2023-03-12T00:14:06.297Z,-1
2023-03-12T00:15:07.442Z,-1
2023-03-12T00:16:08.894Z,-1
2023-03-12T00:17:10.908Z,-1
2023-03-12T00:18:12.355Z,-1
2023-03-12T00:19:13.741Z,-1
2023-03-12T00:20:15.164Z,-1.1
2023-03-12T00:21:16.575Z,-1.1
2023-03-12T00:22:17.991Z,-1.1
2023-03-12T00:23:19.141Z,-1.1
2023-03-12T00:24:20.266Z,-1.1
2023-03-12T00:25:21.694Z,-1.1
2023-03-12T00:26:22.816Z,-1.1
2023-03-12T00:27:24.256Z,-1.1
2023-03-12T00:28:25.664Z,-1.1
2023-03-12T00:29:27.063Z,-1.1
2023-03-12T00:30:28.478Z,-1.1
2023-03-12T00:31:29.774Z,-1.1
2023-03-12T00:32:31.432Z,-1.1
2023-03-12T00:33:32.550Z,-1
2023-03-12T00:34:33.950Z,-1
2023-03-12T00:35:35.394Z,-1
2023-03-12T00:36:36.237Z,-1
2023-03-12T00:37:37.649Z,-1
2023-03-12T00:38:38.803Z,-1
2023-03-12T00:39:40.199Z,-1
2023-03-12T00:40:41.616Z,-1
2023-03-12T00:41:43.036Z,-1
2023-03-12T00:42:44.476Z,-1
2023-03-12T00:43:45.649Z,-1
2023-03-12T00:44:46.775Z,-1
2023-03-12T00:45:48.191Z,-0.9
2023-03-12T00:46:49.652Z,-0.9
2023-03-12T00:47:50.959Z,-1
2023-03-12T00:48:52.213Z,-0.9
2023-03-12T00:49:53.619Z,-0.9
2023-03-12T00:50:55.033Z,-0.9
2023-03-12T00:51:56.456Z,-0.9
2023-03-12T00:52:57.586Z,-0.9
2023-03-12T00:53:58.732Z,-0.9
2023-03-12T00:55:00.132Z,-0.9
2023-03-12T00:56:01.550Z,-0.9
2023-03-12T00:57:02.976Z,-1
2023-03-12T00:58:04.411Z,-0.9
2023-03-12T00:59:05.805Z,-1
2023-03-12T01:00:07.212Z,-1
2023-03-12T01:01:08.664Z,-1
2023-03-12T01:02:10.075Z,-1
2023-03-12T01:03:11.485Z,-1
2023-03-12T01:04:12.937Z,-1
2023-03-12T01:05:14.571Z,-1
2023-03-12T01:06:15.985Z,-1
2023-03-12T01:07:17.403Z,-1.1
2023-03-12T01:08:18.818Z,-1.1
2023-03-12T01:09:19.962Z,-1.1
2023-03-12T01:10:21.371Z,-1.1
2023-03-12T01:11:22.791Z,-1.1
2023-03-12T01:12:24.226Z,-1.1
2023-03-12T01:13:25.644Z,-1.1
2023-03-12T01:14:27.062Z,-1.1
2023-03-12T01:15:28.451Z,-1.2
2023-03-12T01:16:29.925Z,-1.2
2023-03-12T01:17:31.609Z,-1.2
2023-03-12T01:18:33.025Z,-1.2
2023-03-12T01:19:34.172Z,-1.2
2023-03-12T01:20:35.297Z,-1.2
2023-03-12T01:21:36.434Z,-1.2
2023-03-12T01:22:37.853Z,-1.2
2023-03-12T01:23:39.271Z,-1.2
2023-03-12T01:24:40.694Z,-1.2
2023-03-12T01:25:42.110Z,-1.3
2023-03-12T01:26:43.518Z,-1.3
2023-03-12T01:27:44.936Z,-1.3
2023-03-12T01:28:46.376Z,-1.3
2023-03-12T01:29:47.498Z,-1.3
2023-03-12T01:30:48.906Z,-1.3
2023-03-12T01:31:50.093Z,-1.3
2023-03-12T01:32:51.759Z,-1.3
2023-03-12T01:33:53.552Z,-1.3
2023-03-12T01:34:54.977Z,-1.3
2023-03-12T01:35:56.499Z,-1.3
2023-03-12T01:36:58.170Z,-1.3
2023-03-12T01:37:59.582Z,-1.4
2023-03-12T01:39:01.012Z,-1.4
2023-03-12T01:40:02.422Z,-1.4
2023-03-12T01:41:03.831Z,-1.4
2023-03-12T01:42:05.242Z,-1.4
2023-03-12T01:43:06.655Z,-1.4
2023-03-12T01:44:08.182Z,-1.4
2023-03-12T01:45:09.585Z,-1.4
2023-03-12T01:46:11.113Z,-1.4
2023-03-12T01:47:12.985Z,-1.4
2023-03-12T01:48:14.398Z,-1.4
2023-03-12T01:49:15.810Z,-1.4
2023-03-12T01:50:17.232Z,-1.4
2023-03-12T01:51:18.636Z,-1.5
2023-03-12T01:52:20.057Z,-1.4
2023-03-12T01:53:21.472Z,-1.5
2023-03-12T01:54:22.887Z,-1.5
2023-03-12T01:55:24.315Z,-1.5
2023-03-12T01:56:25.719Z,-1.5
2023-03-12T01:57:27.130Z,-1.4
2023-03-12T01:58:28.554Z,-1.4
2023-03-12T01:59:29.710Z,-1.4
2023-03-12T02:00:31.112Z,-1.4
2023-03-12T02:01:32.556Z,-1.4
2023-03-12T02:02:34.384Z,-1.4
2023-03-12T02:03:35.816Z,-1.4
2023-03-12T02:04:37.258Z,-1.4
2023-03-12T02:05:38.680Z,-1.4
2023-03-12T02:06:40.088Z,-1.4
2023-03-12T02:07:41.227Z,-1.4
2023-03-12T02:08:42.645Z,-1.4
2023-03-12T02:09:44.053Z,-1.4
2023-03-12T02:10:45.478Z,-1.4
2023-03-12T02:11:46.890Z,-1.4
2023-03-12T02:12:48.025Z,-1.4
2023-03-12T02:13:49.446Z,-1.4
2023-03-12T02:14:50.973Z,-1.4
2023-03-12T02:15:52.374Z,-1.4
2023-03-12T02:16:53.848Z,-1.4
2023-03-12T02:17:55.523Z,-1.4
2023-03-12T02:18:56.938Z,-1.4
2023-03-12T02:19:58.357Z,-1.4
2023-03-12T02:20:59.780Z,-1.4
2023-03-12T02:22:01.192Z,-1.4
2023-03-12T02:23:02.604Z,-1.4
2023-03-12T02:24:04.017Z,-1.4
2023-03-12T02:25:05.440Z,-1.3
2023-03-12T02:26:06.582Z,-1.4
2023-03-12T02:27:07.998Z,-1.4
2023-03-12T02:28:09.415Z,-1.4
2023-03-12T02:29:10.825Z,-1.4
2023-03-12T02:30:12.259Z,-1.4
2023-03-12T02:31:13.662Z,-1.4
2023-03-12T02:32:14.804Z,-1.4
2023-03-12T02:33:16.376Z,-1.4
2023-03-12T02:34:17.792Z,-1.4
2023-03-12T02:35:19.214Z,-1.4
2023-03-12T02:36:20.896Z,-1.4
2023-03-12T02:37:22.653Z,-1.4
2023-03-12T02:38:24.064Z,-1.4
2023-03-12T02:39:25.484Z,-1.5
2023-03-12T02:40:26.899Z,-1.5
2023-03-12T02:41:28.324Z,-1.5
2023-03-12T02:42:29.729Z,-1.5
2023-03-12T02:43:31.154Z,-1.5
2023-03-12T02:44:32.561Z,-1.5
2023-03-12T02:45:34.010Z,-1.5
2023-03-12T02:46:35.627Z,-1.5
2023-03-12T02:47:37.054Z,-1.5
2023-03-12T02:48:38.460Z,-1.5
2023-03-12T02:49:39.874Z,-1.5
2023-03-12T02:50:41.287Z,-1.5
2023-03-12T02:51:42.737Z,-1.5
2023-03-12T02:52:44.120Z,-1.5
2023-03-12T02:53:45.535Z,-1.5
2023-03-12T02:54:46.956Z,-1.5
2023-03-12T02:55:48.370Z,-1.6
2023-03-12T02:56:49.806Z,-1.5
2023-03-12T02:57:51.198Z,-1.5
2023-03-12T02:58:52.612Z,-1.6
2023-03-12T02:59:54.032Z,-1.6
2023-03-12T03:00:55.593Z,-1.6
2023-03-12T03:01:57.512Z,-1.6
2023-03-12T03:02:58.887Z,-1.6
2023-03-12T03:04:00.326Z,-1.6
2023-03-12T03:05:02.064Z,-1.6
2023-03-12T03:06:03.481Z,-1.6
2023-03-12T03:07:04.669Z,-1.6
2023-03-12T03:08:06.067Z,-1.6
2023-03-12T03:09:07.489Z,-1.6
2023-03-12T03:10:08.897Z,-1.6
2023-03-12T03:11:10.034Z,-1.7
2023-03-12T03:12:11.474Z,-1.7
2023-03-12T03:13:12.869Z,-1.7
2023-03-12T03:14:14.282Z,-1.7
2023-03-12T03:15:15.700Z,-1.7
2023-03-12T03:16:17.190Z,-1.7
2023-03-12T03:17:18.650Z,-1.7
2023-03-12T03:18:20.038Z,-1.8
2023-03-12T03:19:21.454Z,-1.8
2023-03-12T03:20:22.873Z,-1.8
2023-03-12T03:21:24.285Z,-1.8
2023-03-12T03:22:25.723Z,-1.8
2023-03-12T03:23:27.119Z,-1.8
2023-03-12T03:24:28.536Z,-1.8
2023-03-12T03:25:29.952Z,-1.8
2023-03-12T03:26:31.384Z,-1.9
2023-03-12T03:27:32.959Z,-1.9
2023-03-12T03:28:34.362Z,-1.9
2023-03-12T03:29:35.777Z,-1.9
2023-03-12T03:30:37.188Z,-1.9
2023-03-12T03:31:37.833Z,-1.9
2023-03-12T03:32:39.298Z,-1.9
2023-03-12T03:33:40.571Z,-1.9
2023-03-12T03:34:41.944Z,-1.9
2023-03-12T03:35:43.351Z,-1.9
2023-03-12T03:36:44.884Z,-1.9
2023-03-12T03:37:46.319Z,-1.9
2023-03-12T03:38:47.714Z,-1.9
2023-03-12T03:39:49.130Z,-1.9
2023-03-12T03:40:50.547Z,-1.9
2023-03-12T03:41:51.680Z,-1.9
2023-03-12T03:42:52.839Z,-1.9
2023-03-12T03:43:54.233Z,-1.9
2023-03-12T03:44:55.654Z,-2
2023-03-12T03:45:56.821Z,-2
2023-03-12T03:46:58.069Z,-2
2023-03-12T03:47:59.465Z,-2
2023-03-12T03:49:00.865Z,-2
2023-03-12T03:50:02.280Z,-2
2023-03-12T03:51:03.692Z,-2
2023-03-12T03:52:05.112Z,-2.1
2023-03-12T03:53:06.265Z,-2.1
2023-03-12T03:54:07.664Z,-2.1
2023-03-12T03:55:09.087Z,-2.1
2023-03-12T03:56:10.498Z,-2.1
2023-03-12T03:57:11.392Z,-2.1
2023-03-12T03:58:12.811Z,-2.1
2023-03-12T03:59:14.217Z,-2.1
2023-03-12T04:00:15.079Z,-2.1
2023-03-12T04:01:16.490Z,-2.1
2023-03-12T04:02:17.952Z,-2.1
2023-03-12T04:03:20.039Z,-2.2
2023-03-12T04:04:21.538Z,-2.2
2023-03-12T04:05:22.969Z,-2.2
2023-03-12T04:06:24.371Z,-2.2
2023-03-12T04:07:25.500Z,-2.2
2023-03-12T04:08:26.947Z,-2.2
2023-03-12T04:09:28.356Z,-2.2
2023-03-12T04:10:29.751Z,-2.2
2023-03-12T04:11:30.945Z,-2.2
2023-03-12T04:12:32.347Z,-2.2
2023-03-12T04:13:33.784Z,-2.2
2023-03-12T04:14:35.177Z,-2.2
2023-03-12T04:15:36.313Z,-2.2
2023-03-12T04:16:37.465Z,-2.2
2023-03-12T04:17:38.892Z,-2.2
2023-03-12T04:18:40.484Z,-2.2
2023-03-12T04:19:41.881Z,-2.3
2023-03-12T04:20:43.298Z,-2.3
2023-03-12T04:21:44.716Z,-2.3
2023-03-12T04:22:46.138Z,-2.3
2023-03-12T04:23:47.559Z,-2.3
2023-03-12T04:24:48.958Z,-2.3
2023-03-12T04:25:49.819Z,-2.3
2023-03-12T04:26:50.994Z,-2.3
2023-03-12T04:27:52.415Z,-2.3
2023-03-12T04:28:53.839Z,-2.3
2023-03-12T04:29:55.242Z,-2.3
2023-03-12T04:30:56.665Z,-2.3
2023-03-12T04:31:58.096Z,-2.3
2023-03-12T04:32:59.533Z,-2.3
2023-03-12T04:34:00.937Z,-2.3
2023-03-12T04:35:02.337Z,-2.3
2023-03-12T04:36:03.501Z,-2.3
2023-03-12T04:37:04.878Z,-2.3
2023-03-12T04:38:06.299Z,-2.3
2023-03-12T04:39:07.705Z,-2.3
2023-03-12T04:40:09.129Z,-2.3
2023-03-12T04:41:10.540Z,-2.4
2023-03-12T04:42:11.750Z,-2.4
2023-03-12T04:43:12.889Z,-2.4
2023-03-12T04:44:14.297Z,-2.4
2023-03-12T04:45:15.709Z,-2.4
2023-03-12T04:46:16.865Z,-2.4
2023-03-12T04:47:18.271Z,-2.4
2023-03-12T04:48:19.225Z,-2.4
2023-03-12T04:49:20.334Z,-2.4
2023-03-12T04:50:21.745Z,-2.4
2023-03-12T04:51:22.949Z,-2.4
2023-03-12T04:52:24.364Z,-2.4
2023-03-12T04:53:25.828Z,-2.4
2023-03-12T04:54:27.017Z,-2.4
2023-03-12T04:55:28.432Z,-2.4
2023-03-12T04:56:29.850Z,-2.4
2023-03-12T04:57:31.305Z,-2.4
2023-03-12T04:58:32.780Z,-2.4
2023-03-12T04:59:34.189Z,-2.4
2023-03-12T05:00:35.601Z,-2.5
2023-03-12T05:01:36.750Z,-2.4
2023-03-12T05:02:38.276Z,-2.5
2023-03-12T05:03:39.885Z,-2.5
2023-03-12T05:04:41.210Z,-2.5
2023-03-12T05:05:42.625Z,-2.5
2023-03-12T05:06:43.785Z,-2.5
2023-03-12T05:07:45.189Z,-2.5
2023-03-12T05:08:46.348Z,-2.5
2023-03-12T05:09:47.468Z,-2.5
2023-03-12T05:10:48.652Z,-2.5
2023-03-12T05:11:49.798Z,-2.5
2023-03-12T05:12:51.202Z,-2.5
2023-03-12T05:13:52.638Z,-2.5
2023-03-12T05:14:53.798Z,-2.5
2023-03-12T05:15:55.246Z,-2.5
2023-03-12T05:16:56.973Z,-2.5
2023-03-12T05:17:58.386Z,-2.5
2023-03-12T05:18:59.605Z,-2.6
2023-03-12T05:20:01.037Z,-2.6
2023-03-12T05:21:02.162Z,-2.6
2023-03-12T05:22:03.294Z,-2.6
2023-03-12T05:23:04.430Z,-2.6
2023-03-12T05:24:05.576Z,-2.6
2023-03-12T05:25:06.705Z,-2.6
2023-03-12T05:26:08.129Z,-2.6
2023-03-12T05:27:09.538Z,-2.6
2023-03-12T05:28:10.953Z,-2.6
2023-03-12T05:29:12.383Z,-2.6
2023-03-12T05:30:13.781Z,-2.6
2023-03-12T05:31:14.975Z,-2.6
2023-03-12T05:32:16.561Z,-2.6
2023-03-12T05:33:18.013Z,-2.6
2023-03-12T05:34:19.477Z,-2.6
2023-03-12T05:35:20.574Z,-2.6
2023-03-12T05:36:21.995Z,-2.5
2023-03-12T05:37:23.407Z,-2.6
2023-03-12T05:38:24.728Z,-2.5
2023-03-12T05:39:26.166Z,-2.5
2023-03-12T05:40:27.567Z,-2.5
2023-03-12T05:41:28.468Z,-2.5
2023-03-12T05:42:29.877Z,-2.5
2023-03-12T05:43:31.015Z,-2.5
2023-03-12T05:44:32.454Z,-2.5
2023-03-12T05:45:33.937Z,-2.5
2023-03-12T05:46:35.084Z,-2.5
2023-03-12T05:47:36.497Z,-2.4
2023-03-12T05:48:37.916Z,-2.4
2023-03-12T05:49:39.384Z,-2.4
2023-03-12T05:50:40.761Z,-2.4
2023-03-12T05:51:42.172Z,-2.4
2023-03-12T05:52:43.591Z,-2.4
2023-03-12T05:53:45.007Z,-2.4
2023-03-12T05:54:46.868Z,-2.4
2023-03-12T05:55:48.238Z,-2.3
2023-03-12T05:56:49.664Z,-2.3
2023-03-12T05:57:50.796Z,-2.3
2023-03-12T05:58:52.210Z,-2.3
2023-03-12T05:59:53.644Z,-2.3
2023-03-12T06:00:54.538Z,-2.3
2023-03-12T06:01:56.006Z,-2.3
2023-03-12T06:02:57.068Z,-2.3
2023-03-12T06:03:58.530Z,-2.3
2023-03-12T06:04:59.984Z,-2.3
2023-03-12T06:06:01.080Z,-2.2
2023-03-12T06:07:02.498Z,-2.2
2023-03-12T06:08:03.440Z,-2.2
2023-03-12T06:09:04.605Z,-2.2
2023-03-12T06:10:05.810Z,-2.2
2023-03-12T06:11:06.926Z,-2.2
2023-03-12T06:12:08.058Z,-2.2
2023-03-12T06:13:09.477Z,-2.1
2023-03-12T06:14:10.894Z,-2.1
2023-03-12T06:15:12.323Z,-2.1
2023-03-12T06:16:13.755Z,-2.1
2023-03-12T06:17:15.155Z,-2.1
2023-03-12T06:18:16.568Z,-2.1
2023-03-12T06:19:17.983Z,-2
2023-03-12T06:20:19.456Z,-2
2023-03-12T06:21:20.827Z,-2
2023-03-12T06:22:22.248Z,-2
2023-03-12T06:23:23.657Z,-1.9
2023-03-12T06:24:25.094Z,-1.9
2023-03-12T06:25:26.506Z,-1.9
2023-03-12T06:26:27.631Z,-1.8
2023-03-12T06:27:29.048Z,-1.8
2023-03-12T06:28:30.468Z,-1.8
2023-03-12T06:29:31.877Z,-1.7
2023-03-12T06:30:33.316Z,-1.7
2023-03-12T06:31:37.291Z,-1.6
2023-03-12T06:32:40.353Z,-1.6
2023-03-12T06:33:42.142Z,-1.6
2023-03-12T06:34:43.561Z,-1.5
2023-03-12T06:35:45.041Z,-1.5
2023-03-12T06:36:46.510Z,-1.4
2023-03-12T06:37:47.924Z,-1.4
2023-03-12T06:38:49.342Z,-1.3
2023-03-12T06:39:50.753Z,-1.3
2023-03-12T06:40:52.187Z,-1.3
2023-03-12T06:41:53.584Z,-1.2
2023-03-12T06:42:54.997Z,-1.2
2023-03-12T06:43:56.435Z,-1.1
2023-03-12T06:44:57.833Z,-1.1
2023-03-12T06:45:59.325Z,-1.1
2023-03-12T06:47:00.982Z,-1
2023-03-12T06:48:02.391Z,-1
2023-03-12T06:49:03.804Z,-0.9
2023-03-12T06:50:05.220Z,-0.9
2023-03-12T06:51:06.680Z,-0.8
2023-03-12T06:52:08.059Z,-0.8
2023-03-12T06:53:09.231Z,-0.8
2023-03-12T06:54:10.644Z,-0.7
2023-03-12T06:55:12.061Z,-0.7
2023-03-12T06:56:13.822Z,-0.6
2023-03-12T06:57:15.202Z,-0.6
2023-03-12T06:58:16.622Z,-0.5
2023-03-12T06:59:18.036Z,-0.5
2023-03-12T07:00:19.171Z,-0.4
2023-03-12T07:01:20.612Z,-0.4
2023-03-12T07:02:22.067Z,-0.4
2023-03-12T07:03:23.219Z,-0.3
2023-03-12T07:04:24.791Z,-0.3
2023-03-12T07:05:28.764Z,-0.3
2023-03-12T07:06:31.402Z,-0.2
2023-03-12T07:07:32.794Z,-0.2
2023-03-12T07:08:34.214Z,-0.1
2023-03-12T07:09:35.640Z,-0.1
2023-03-12T07:10:37.060Z,0
2023-03-12T07:11:38.492Z,0
2023-03-12T07:12:39.885Z,0.1
2023-03-12T07:13:41.317Z,0.1
2023-03-12T07:14:42.722Z,0.2
2023-03-12T07:15:44.151Z,0.2
2023-03-12T07:16:45.727Z,0.3
2023-03-12T07:17:47.146Z,0.3
2023-03-12T07:18:48.568Z,0.4
2023-03-12T07:19:49.997Z,0.4
2023-03-12T07:20:51.386Z,0.5
2023-03-12T07:21:52.544Z,0.5
2023-03-12T07:22:53.939Z,0.6
2023-03-12T07:23:55.367Z,0.6
2023-03-12T07:24:56.770Z,0.7
2023-03-12T07:25:58.181Z,0.7
2023-03-12T07:26:59.604Z,0.7
2023-03-12T07:28:01.029Z,0.8
2023-03-12T07:29:02.162Z,0.8
2023-03-12T07:30:03.285Z,0.8
2023-03-12T07:31:04.762Z,0.9
2023-03-12T07:32:06.444Z,0.9
2023-03-12T07:33:07.984Z,0.9
2023-03-12T07:34:10.306Z,1
2023-03-12T07:35:12.099Z,1
2023-03-12T07:36:13.583Z,1.1
2023-03-12T07:37:15.391Z,1.1
2023-03-12T07:38:16.553Z,1.1
2023-03-12T07:39:18.158Z,1.2
2023-03-12T07:40:19.603Z,1.2
2023-03-12T07:41:21.100Z,1.3
2023-03-12T07:42:22.630Z,1.3
2023-03-12T07:43:24.334Z,1.3
2023-03-12T07:44:26.067Z,1.4
2023-03-12T07:45:27.517Z,1.4
2023-03-12T07:46:29.226Z,1.4
2023-03-12T07:47:30.717Z,1.5
2023-03-12T07:48:32.748Z,1.5
2023-03-12T07:49:34.170Z,1.6
2023-03-12T07:50:35.573Z,1.6
2023-03-12T07:51:36.988Z,1.6
2023-03-12T07:52:38.432Z,1.7
2023-03-12T07:53:39.830Z,1.7
2023-03-12T07:54:41.243Z,1.8
2023-03-12T07:55:42.968Z,1.8
2023-03-12T07:56:45.035Z,1.8
2023-03-12T07:57:47.295Z,1.8
2023-03-12T07:58:49.053Z,1.9
2023-03-12T07:59:50.235Z,1.9
2023-03-12T08:00:51.836Z,1.9
2023-03-12T08:01:53.443Z,2
2023-03-12T08:02:55.151Z,2
2023-03-12T08:03:57.382Z,2.1
2023-03-12T08:04:59.016Z,2.1
2023-03-12T08:06:00.772Z,2.1
2023-03-12T08:07:02.300Z,2.2
2023-03-12T08:08:04.052Z,2.2
2023-03-12T08:09:05.731Z,2.2
2023-03-12T08:10:07.115Z,2.2
2023-03-12T08:11:08.850Z,2.3
2023-03-12T08:12:10.326Z,2.3
2023-03-12T08:13:11.942Z,2.3
2023-03-12T08:14:13.603Z,2.3
2023-03-12T08:15:15.121Z,2.4
2023-03-12T08:16:16.576Z,2.4
2023-03-12T08:17:17.955Z,2.5
2023-03-12T08:18:19.368Z,2.5
2023-03-12T08:19:20.800Z,2.6
2023-03-12T08:20:21.966Z,2.6
2023-03-12T08:21:23.380Z,2.7
2023-03-12T08:22:24.806Z,2.7
2023-03-12T08:23:26.233Z,2.8
2023-03-12T08:24:27.356Z,2.9
2023-03-12T08:25:28.761Z,3
2023-03-12T08:26:29.985Z,3.1
2023-03-12T08:27:31.465Z,3.1
2023-03-12T08:28:32.669Z,3.2
2023-03-12T08:29:34.097Z,3.2
2023-03-12T08:30:35.503Z,3.3
2023-03-12T08:31:36.714Z,3.4
2023-03-12T08:32:38.336Z,3.5
2023-03-12T08:33:40.225Z,3.5
2023-03-12T08:34:41.654Z,3.6
2023-03-12T08:35:43.084Z,3.7
2023-03-12T08:36:44.240Z,3.7
2023-03-12T08:37:45.657Z,3.8
2023-03-12T08:38:46.821Z,3.8
2023-03-12T08:39:48.211Z,3.8
2023-03-12T08:40:49.622Z,3.8
2023-03-12T08:41:50.829Z,3.8
2023-03-12T08:42:51.961Z,3.8
2023-03-12T08:43:53.375Z,3.8
2023-03-12T08:44:54.587Z,3.9
2023-03-12T08:45:55.989Z,3.9
2023-03-12T08:46:57.118Z,3.9
2023-03-12T08:47:58.533Z,4
2023-03-12T08:48:59.968Z,4
2023-03-12T08:50:01.360Z,4.1
2023-03-12T08:51:02.779Z,4.1
2023-03-12T08:52:04.198Z,4.2
2023-03-12T08:53:05.329Z,4.2
2023-03-12T08:54:06.798Z,4.3
2023-03-12T08:55:07.940Z,4.3
2023-03-12T08:56:09.360Z,4.4
2023-03-12T08:57:10.783Z,4.4
2023-03-12T08:58:12.184Z,4.4
2023-03-12T08:59:13.369Z,4.4
2023-03-12T09:00:14.766Z,4.5
2023-03-12T09:01:16.181Z,4.5
2023-03-12T09:02:17.598Z,4.5
2023-03-12T09:03:19.048Z,4.5
2023-03-12T09:04:20.776Z,4.5
2023-03-12T09:05:21.931Z,4.5
2023-03-12T09:06:23.349Z,4.5
2023-03-12T09:07:24.765Z,4.6
2023-03-12T09:08:26.350Z,4.6
2023-03-12T09:09:27.800Z,4.7
2023-03-12T09:10:31.040Z,4.7
2023-03-12T09:11:32.618Z,4.8
2023-03-12T09:12:34.032Z,4.8
2023-03-12T09:13:54.523Z,4.8
2023-03-12T09:16:03.287Z,4.9
2023-03-12T09:17:04.444Z,4.9
2023-03-12T09:18:05.869Z,4.9
2023-03-12T09:19:06.995Z,5
2023-03-12T09:20:08.425Z,5
2023-03-12T09:21:09.855Z,5.1
2023-03-12T09:22:10.689Z,5.2
2023-03-12T09:23:12.116Z,5.2
2023-03-12T09:24:13.533Z,5.3
2023-03-12T09:25:15.067Z,5.4
2023-03-12T09:26:16.445Z,5.4
2023-03-12T09:27:17.865Z,5.5
2023-03-12T09:28:19.269Z,5.5
2023-03-12T09:29:20.690Z,5.6
2023-03-12T09:30:22.153Z,5.6
2023-03-12T09:31:23.638Z,5.6
2023-03-12T09:32:25.062Z,5.6
2023-03-12T09:33:26.234Z,5.6
2023-03-12T09:34:27.645Z,5.7
2023-03-12T09:35:29.060Z,5.7
2023-03-12T09:36:30.470Z,5.7
2023-03-12T09:37:31.640Z,5.7
2023-03-12T09:38:33.019Z,5.7
2023-03-12T09:39:34.434Z,5.8
2023-03-12T09:40:35.885Z,5.8
2023-03-12T09:41:37.263Z,5.8
2023-03-12T09:42:38.424Z,5.9
2023-03-12T09:43:40.005Z,5.9
2023-03-12T09:44:41.434Z,5.9
2023-03-12T09:45:42.574Z,6
2023-03-12T09:46:43.536Z,6
2023-03-12T09:47:44.932Z,6
2023-03-12T09:48:47.584Z,6.1
2023-03-12T09:49:48.868Z,6.1
2023-03-12T09:50:50.296Z,6.2
2023-03-12T09:51:51.761Z,6.2
2023-03-12T09:52:53.143Z,6.2
2023-03-12T09:53:54.278Z,6.3
2023-03-12T09:54:55.685Z,6.3
2023-03-12T09:55:57.148Z,6.3
2023-03-12T09:56:58.528Z,6.4
2023-03-12T09:57:59.940Z,6.4
2023-03-12T09:59:01.367Z,6.5
2023-03-12T10:00:02.889Z,6.5
2023-03-12T10:01:04.315Z,6.6
2023-03-12T10:02:05.744Z,6.6
2023-03-12T10:03:07.221Z,6.6
2023-03-12T10:04:08.967Z,6.7
2023-03-12T10:05:10.610Z,6.8
2023-03-12T10:06:12.263Z,6.8
2023-03-12T10:07:13.811Z,6.8
2023-03-12T10:08:24.107Z,6.8
2023-03-12T10:09:32.615Z,6.9
2023-03-12T10:10:34.031Z,6.9
2023-03-12T10:11:35.485Z,7
2023-03-12T10:12:36.859Z,7
2023-03-12T10:13:38.299Z,7
2023-03-12T10:14:39.499Z,7
2023-03-12T10:15:40.965Z,7
2023-03-12T10:16:42.505Z,7
2023-03-12T10:17:43.977Z,7
2023-03-12T10:18:48.138Z,7
2023-03-12T10:19:50.208Z,7
2023-03-12T10:20:51.630Z,7
2023-03-12T10:21:53.039Z,7.1
2023-03-12T10:22:54.621Z,7.2
2023-03-12T10:23:55.760Z,7.2
2023-03-12T10:24:56.892Z,7.3
2023-03-12T10:25:58.304Z,7.3
2023-03-12T10:26:59.795Z,7.3
2023-03-12T10:28:01.194Z,7.4
2023-03-12T10:29:02.591Z,7.4
2023-03-12T10:30:04.000Z,7.4
2023-03-12T10:31:05.189Z,7.4
2023-03-12T10:32:06.989Z,7.4
2023-03-12T10:33:08.387Z,7.5
2023-03-12T10:34:09.804Z,7.4
2023-03-12T10:35:11.217Z,7.5
2023-03-12T10:36:12.691Z,7.5
2023-03-12T10:37:14.313Z,7.5
2023-03-12T10:38:15.408Z,7.5
2023-03-12T10:39:16.831Z,7.5
2023-03-12T10:40:18.239Z,7.4
2023-03-12T10:41:19.655Z,7.4
2023-03-12T10:42:21.110Z,7.3
2023-03-12T10:43:22.516Z,7.3
2023-03-12T10:44:23.633Z,7.3
2023-03-12T10:45:25.040Z,7.2
2023-03-12T10:46:26.465Z,7.1
2023-03-12T10:47:27.812Z,7.1
2023-03-12T10:48:29.208Z,7
2023-03-12T10:49:30.620Z,7
2023-03-12T10:50:32.032Z,6.9
2023-03-12T10:51:33.446Z,6.9
2023-03-12T10:52:34.910Z,6.8
2023-03-12T10:53:36.300Z,6.8
2023-03-12T10:54:37.419Z,6.7
2023-03-12T10:55:38.829Z,6.7
2023-03-12T10:56:40.245Z,6.6
2023-03-12T10:57:41.713Z,6.6
2023-03-12T10:58:43.109Z,6.6
2023-03-12T10:59:44.508Z,6.6
2023-03-12T11:00:45.734Z,6.6
2023-03-12T11:01:47.182Z,6.5
2023-03-12T11:02:48.724Z,6.5
2023-03-12T11:03:50.121Z,6.5
2023-03-12T11:04:51.314Z,6.5
2023-03-12T11:05:52.745Z,6.5
2023-03-12T11:06:54.318Z,6.5
2023-03-12T11:07:55.756Z,6.5
2023-03-12T11:09:10.171Z,6.5
2023-03-12T11:10:18.545Z,6.4
2023-03-12T11:11:19.959Z,6.4
2023-03-12T11:12:21.378Z,6.4
2023-03-12T11:13:23.243Z,6.4
2023-03-12T11:14:24.644Z,6.3
2023-03-12T11:15:26.052Z,6.3
2023-03-12T11:16:28.527Z,6.3
2023-03-12T11:17:33.249Z,6.4
2023-03-12T11:18:34.695Z,6.4
2023-03-12T11:19:36.082Z,6.4
2023-03-12T11:20:37.623Z,6.5
2023-03-12T11:21:39.034Z,6.5
2023-03-12T11:22:40.448Z,6.6
2023-03-12T11:23:41.882Z,6.6
2023-03-12T11:24:43.281Z,6.7
2023-03-12T11:25:44.694Z,6.7
2023-03-12T11:26:46.110Z,6.7
2023-03-12T11:27:47.529Z,6.7
2023-03-12T11:28:48.974Z,6.8
2023-03-12T11:29:50.415Z,6.8
2023-03-12T11:30:51.877Z,6.8
2023-03-12T11:31:53.500Z,6.8
2023-03-12T11:32:55.168Z,6.9
2023-03-12T11:33:56.787Z,6.9
2023-03-12T11:34:57.909Z,6.9
2023-03-12T11:35:59.360Z,7
2023-03-12T11:37:00.784Z,7
2023-03-12T11:38:02.191Z,7
2023-03-12T11:39:03.620Z,7.1
2023-03-12T11:40:05.028Z,7.1
2023-03-12T11:41:06.434Z,7.1
2023-03-12T11:42:07.572Z,7.2
2023-03-12T11:43:08.987Z,7.2
2023-03-12T11:44:10.436Z,7.2
2023-03-12T11:45:11.824Z,7.2
2023-03-12T11:46:13.354Z,7.2
2023-03-12T11:47:14.999Z,7.2
2023-03-12T11:48:16.426Z,7.2
2023-03-12T11:49:17.413Z,7.2
2023-03-12T11:50:18.260Z,7.2
2023-03-12T11:51:19.691Z,7.2
2023-03-12T11:52:21.085Z,7.2
2023-03-12T11:53:21.987Z,7.2
2023-03-12T11:54:22.907Z,7.2
2023-03-12T11:55:24.301Z,7.2
2023-03-12T11:56:25.709Z,7.1
2023-03-12T11:57:27.126Z,7.1
2023-03-12T11:58:28.310Z,7.1
2023-03-12T11:59:29.777Z,7.1
2023-03-12T12:00:31.145Z,7.1
2023-03-12T12:01:32.284Z,7.1
2023-03-12T12:02:33.695Z,7.1
2023-03-12T12:03:35.171Z,7.1
2023-03-12T12:04:36.732Z,7.1
2023-03-12T12:05:38.121Z,7.1
2023-03-12T12:06:39.569Z,7
2023-03-12T12:07:40.702Z,7
2023-03-12T12:08:42.119Z,7
2023-03-12T12:09:43.267Z,7
2023-03-12T12:10:44.675Z,7
2023-03-12T12:11:45.858Z,7
2023-03-12T12:12:47.028Z,7
2023-03-12T12:13:48.442Z,7
2023-03-12T12:14:49.898Z,7
2023-03-12T12:15:51.016Z,7
2023-03-12T12:16:52.194Z,6.9
2023-03-12T12:17:53.581Z,6.9
2023-03-12T12:18:54.772Z,6.9
2023-03-12T12:19:56.778Z,6.9
2023-03-12T12:20:58.150Z,6.9
2023-03-12T12:21:59.289Z,6.9
2023-03-12T12:23:00.880Z,6.9
2023-03-12T12:24:02.559Z,6.8
2023-03-12T12:25:03.705Z,6.8
2023-03-12T12:26:05.319Z,6.8
2023-03-12T12:27:07.113Z,6.8
2023-03-12T12:28:08.529Z,6.8
2023-03-12T12:29:09.946Z,6.7
2023-03-12T12:30:10.862Z,6.7
2023-03-12T12:31:12.242Z,6.7
2023-03-12T12:32:13.656Z,6.8
2023-03-12T12:33:14.702Z,6.8
2023-03-12T12:34:16.126Z,6.8
2023-03-12T12:35:17.550Z,6.7
2023-03-12T12:36:18.946Z,6.7
2023-03-12T12:37:20.372Z,6.7
2023-03-12T12:38:21.573Z,6.7
2023-03-12T12:39:22.962Z,6.7
2023-03-12T12:40:24.385Z,6.7
2023-03-12T12:41:25.557Z,6.7
2023-03-12T12:42:26.976Z,6.7
2023-03-12T12:43:28.392Z,6.7
2023-03-12T12:44:29.799Z,6.7
2023-03-12T12:45:31.291Z,6.7
2023-03-12T12:46:32.675Z,6.7
2023-03-12T12:47:33.805Z,6.7
2023-03-12T12:48:35.219Z,6.7
2023-03-12T12:49:36.630Z,6.8
2023-03-12T12:50:38.062Z,6.8
2023-03-12T12:51:39.461Z,6.9
2023-03-12T12:52:40.880Z,6.9
2023-03-12T12:53:42.294Z,7
2023-03-12T12:54:43.196Z,7.1
2023-03-12T12:55:44.634Z,7.1
2023-03-12T12:56:46.036Z,7.1
2023-03-12T12:57:46.649Z,7.1
2023-03-12T12:58:48.062Z,7.1
2023-03-12T12:59:49.198Z,7.2
2023-03-12T13:00:50.689Z,7.2
2023-03-12T13:01:52.021Z,7.2
2023-03-12T13:02:53.501Z,7.2
2023-03-12T13:03:54.755Z,7.2
2023-03-12T13:04:56.185Z,7.2
2023-03-12T13:05:57.331Z,7.2
2023-03-12T13:06:58.454Z,7.1
2023-03-12T13:07:59.875Z,7.1
2023-03-12T13:09:01.280Z,7
2023-03-12T13:10:02.221Z,7
2023-03-12T13:11:16.507Z,6.9
2023-03-12T13:12:21.492Z,6.9
2023-03-12T13:13:22.908Z,6.9
2023-03-12T13:14:27.487Z,6.8
2023-03-12T13:15:28.903Z,6.8
2023-03-12T13:16:30.454Z,6.8
2023-03-12T13:17:31.704Z,6.8
2023-03-12T13:18:33.123Z,6.8
2023-03-12T13:19:34.541Z,6.8
2023-03-12T13:20:35.674Z,6.8
2023-03-12T13:21:36.836Z,6.8
2023-03-12T13:22:38.224Z,6.8
2023-03-12T13:23:39.642Z,6.8
2023-03-12T13:24:40.828Z,6.8
2023-03-12T13:25:41.956Z,6.8
2023-03-12T13:26:43.368Z,6.8
2023-03-12T13:27:44.789Z,6.8
2023-03-12T13:28:45.923Z,6.8
2023-03-12T13:29:47.127Z,6.8
2023-03-12T13:30:48.314Z,6.8
2023-03-12T13:31:49.888Z,6.8
2023-03-12T13:32:50.870Z,6.8
2023-03-12T13:33:52.293Z,6.7
2023-03-12T13:34:53.742Z,6.7
2023-03-12T13:35:55.069Z,6.7
2023-03-12T13:36:56.495Z,6.7
2023-03-12T13:37:57.922Z,6.7
2023-03-12T13:38:59.326Z,6.7
2023-03-12T13:40:00.480Z,6.7
2023-03-12T13:41:01.879Z,6.7
2023-03-12T13:42:03.221Z,6.7
2023-03-12T13:43:04.360Z,6.6
2023-03-12T13:44:05.776Z,6.6
2023-03-12T13:45:07.013Z,6.6
2023-03-12T13:46:08.484Z,6.5
2023-03-12T13:47:10.078Z,6.5
2023-03-12T13:48:11.354Z,6.4
2023-03-12T13:49:12.771Z,6.4
2023-03-12T13:50:14.228Z,6.4
2023-03-12T13:51:15.529Z,6.4
2023-03-12T13:52:16.940Z,6.4
2023-03-12T13:53:17.863Z,6.3
2023-03-12T13:54:19.310Z,6.3
2023-03-12T13:55:20.476Z,6.3
2023-03-12T13:56:21.873Z,6.3
2023-03-12T13:57:23.288Z,6.2
2023-03-12T13:58:24.421Z,6.2
2023-03-12T13:59:25.840Z,6.2
2023-03-12T14:00:27.003Z,6.2